sensor_id;sensor_type;location;lat;lon;timestamp;P1;durP1;ratioP1;P2;durP2;ratioP2
15526;SDS011;7865;50.918;4.510;2023-04-24T00:02:29;30.83;;;18.40;;
15526;SDS011;7865;50.918;4.510;2023-04-24T00:07:31;20.83;;;17.47;;
15526;SDS011;7865;50.918;4.510;2023-04-24T00:12:33;24.40;;;17.43;;
15526;SDS011;7865;50.918;4.510;2023-04-24T00:17:34;32.30;;;17.50;;
15526;SDS011;7865;50.918;4.510;2023-04-24T00:22:36;32.17;;;17.70;;
15526;SDS011;7865;50.918;4.510;2023-04-24T00:27:37;22.87;;;16.73;;
15526;SDS011;7865;50.918;4.510;2023-04-24T00:32:39;31.60;;;16.97;;
15526;SDS011;7865;50.918;4.510;2023-04-24T00:37:40;26.50;;;15.87;;
15526;SDS011;7865;50.918;4.510;2023-04-24T00:42:43;28.37;;;16.17;;
15526;SDS011;7865;50.918;4.510;2023-04-24T00:47:45;25.47;;;15.97;;
15526;SDS011;7865;50.918;4.510;2023-04-24T00:52:48;25.57;;;15.70;;
15526;SDS011;7865;50.918;4.510;2023-04-24T00:57:49;22.90;;;15.53;;
15526;SDS011;7865;50.918;4.510;2023-04-24T01:02:51;32.93;;;17.50;;
15526;SDS011;7865;50.918;4.510;2023-04-24T01:07:54;32.17;;;17.43;;
15526;SDS011;7865;50.918;4.510;2023-04-24T01:12:55;22.10;;;15.70;;
15526;SDS011;7865;50.918;4.510;2023-04-24T01:17:57;25.00;;;15.73;;
15526;SDS011;7865;50.918;4.510;2023-04-24T01:22:59;21.43;;;15.47;;
15526;SDS011;7865;50.918;4.510;2023-04-24T01:28:01;28.27;;;15.73;;
15526;SDS011;7865;50.918;4.510;2023-04-24T01:33:02;24.87;;;15.87;;
15526;SDS011;7865;50.918;4.510;2023-04-24T01:38:04;20.53;;;15.03;;
15526;SDS011;7865;50.918;4.510;2023-04-24T01:43:06;21.80;;;15.03;;
15526;SDS011;7865;50.918;4.510;2023-04-24T01:48:08;20.83;;;13.23;;
15526;SDS011;7865;50.918;4.510;2023-04-24T01:53:09;16.97;;;11.90;;
15526;SDS011;7865;50.918;4.510;2023-04-24T01:58:11;15.90;;;11.27;;
15526;SDS011;7865;50.918;4.510;2023-04-24T02:03:12;16.20;;;11.90;;
15526;SDS011;7865;50.918;4.510;2023-04-24T02:08:14;17.63;;;11.23;;
15526;SDS011;7865;50.918;4.510;2023-04-24T02:13:15;20.17;;;11.40;;
15526;SDS011;7865;50.918;4.510;2023-04-24T02:18:16;19.80;;;11.97;;
15526;SDS011;7865;50.918;4.510;2023-04-24T02:23:18;20.50;;;12.67;;
15526;SDS011;7865;50.918;4.510;2023-04-24T02:28:20;20.73;;;12.60;;
15526;SDS011;7865;50.918;4.510;2023-04-24T02:33:21;17.10;;;13.70;;
15526;SDS011;7865;50.918;4.510;2023-04-24T02:38:22;21.50;;;13.20;;
15526;SDS011;7865;50.918;4.510;2023-04-24T02:43:24;21.97;;;14.37;;
15526;SDS011;7865;50.918;4.510;2023-04-24T02:48:26;18.83;;;13.40;;
15526;SDS011;7865;50.918;4.510;2023-04-24T02:53:27;18.80;;;11.97;;
15526;SDS011;7865;50.918;4.510;2023-04-24T02:58:30;17.30;;;13.10;;
15526;SDS011;7865;50.918;4.510;2023-04-24T03:03:32;21.23;;;13.67;;
15526;SDS011;7865;50.918;4.510;2023-04-24T03:08:34;21.07;;;14.63;;
15526;SDS011;7865;50.918;4.510;2023-04-24T03:13:36;21.47;;;14.10;;
15526;SDS011;7865;50.918;4.510;2023-04-24T03:18:37;21.23;;;14.47;;
15526;SDS011;7865;50.918;4.510;2023-04-24T03:23:40;22.30;;;14.67;;
15526;SDS011;7865;50.918;4.510;2023-04-24T03:28:44;19.77;;;11.80;;
15526;SDS011;7865;50.918;4.510;2023-04-24T03:33:45;18.60;;;11.97;;
15526;SDS011;7865;50.918;4.510;2023-04-24T03:38:47;18.27;;;10.80;;
15526;SDS011;7865;50.918;4.510;2023-04-24T03:43:59;11.63;;;9.00;;
15526;SDS011;7865;50.918;4.510;2023-04-24T03:49:01;15.17;;;11.07;;
15526;SDS011;7865;50.918;4.510;2023-04-24T03:54:07;12.77;;;9.87;;
15526;SDS011;7865;50.918;4.510;2023-04-24T03:59:11;13.87;;;8.07;;
15526;SDS011;7865;50.918;4.510;2023-04-24T04:04:17;14.33;;;8.03;;
15526;SDS011;7865;50.918;4.510;2023-04-24T04:09:19;8.77;;;7.40;;
15526;SDS011;7865;50.918;4.510;2023-04-24T04:14:21;10.33;;;7.77;;
15526;SDS011;7865;50.918;4.510;2023-04-24T04:19:24;8.97;;;6.90;;
15526;SDS011;7865;50.918;4.510;2023-04-24T04:24:26;8.20;;;6.37;;
15526;SDS011;7865;50.918;4.510;2023-04-24T04:29:32;9.93;;;6.50;;
15526;SDS011;7865;50.918;4.510;2023-04-24T04:34:38;7.63;;;5.93;;
15526;SDS011;7865;50.918;4.510;2023-04-24T04:39:42;8.80;;;5.83;;
15526;SDS011;7865;50.918;4.510;2023-04-24T04:44:50;10.77;;;7.43;;
15526;SDS011;7865;50.918;4.510;2023-04-24T04:49:55;9.83;;;7.57;;
15526;SDS011;7865;50.918;4.510;2023-04-24T04:55:00;13.63;;;8.83;;
15526;SDS011;7865;50.918;4.510;2023-04-24T05:00:21;13.10;;;9.37;;
15526;SDS011;7865;50.918;4.510;2023-04-24T05:05:26;13.47;;;9.53;;
15526;SDS011;7865;50.918;4.510;2023-04-24T05:10:28;17.43;;;11.47;;
15526;SDS011;7865;50.918;4.510;2023-04-24T05:15:30;16.37;;;10.70;;
15526;SDS011;7865;50.918;4.510;2023-04-24T05:20:33;16.57;;;10.30;;
15526;SDS011;7865;50.918;4.510;2023-04-24T05:25:36;17.87;;;10.83;;
15526;SDS011;7865;50.918;4.510;2023-04-24T05:30:43;14.50;;;10.87;;
15526;SDS011;7865;50.918;4.510;2023-04-24T05:35:46;18.30;;;11.40;;
15526;SDS011;7865;50.918;4.510;2023-04-24T05:40:48;15.63;;;11.37;;
15526;SDS011;7865;50.918;4.510;2023-04-24T05:45:49;17.07;;;11.03;;
15526;SDS011;7865;50.918;4.510;2023-04-24T05:50:52;18.50;;;10.93;;
15526;SDS011;7865;50.918;4.510;2023-04-24T05:55:53;23.03;;;12.70;;
15526;SDS011;7865;50.918;4.510;2023-04-24T06:00:54;21.10;;;12.20;;
15526;SDS011;7865;50.918;4.510;2023-04-24T06:05:56;24.10;;;12.97;;
15526;SDS011;7865;50.918;4.510;2023-04-24T06:10:58;25.47;;;14.40;;
15526;SDS011;7865;50.918;4.510;2023-04-24T06:15:59;15.90;;;11.23;;
15526;SDS011;7865;50.918;4.510;2023-04-24T06:21:06;23.27;;;13.57;;
15526;SDS011;7865;50.918;4.510;2023-04-24T06:26:08;23.20;;;13.67;;
15526;SDS011;7865;50.918;4.510;2023-04-24T06:31:09;21.60;;;13.43;;
15526;SDS011;7865;50.918;4.510;2023-04-24T06:36:11;24.07;;;13.83;;
15526;SDS011;7865;50.918;4.510;2023-04-24T06:41:13;22.37;;;15.27;;
15526;SDS011;7865;50.918;4.510;2023-04-24T06:46:14;25.30;;;14.10;;
15526;SDS011;7865;50.918;4.510;2023-04-24T06:51:16;26.47;;;16.27;;
15526;SDS011;7865;50.918;4.510;2023-04-24T06:56:19;29.37;;;16.47;;
15526;SDS011;7865;50.918;4.510;2023-04-24T07:01:21;30.13;;;17.27;;
15526;SDS011;7865;50.918;4.510;2023-04-24T07:06:22;39.73;;;18.50;;
15526;SDS011;7865;50.918;4.510;2023-04-24T07:11:24;33.20;;;18.60;;
15526;SDS011;7865;50.918;4.510;2023-04-24T07:16:30;30.40;;;17.93;;
15526;SDS011;7865;50.918;4.510;2023-04-24T07:21:31;30.10;;;17.00;;
15526;SDS011;7865;50.918;4.510;2023-04-24T07:26:33;29.00;;;17.07;;
15526;SDS011;7865;50.918;4.510;2023-04-24T07:31:34;34.00;;;17.90;;
15526;SDS011;7865;50.918;4.510;2023-04-24T07:36:36;33.63;;;16.93;;
15526;SDS011;7865;50.918;4.510;2023-04-24T07:41:39;26.90;;;16.53;;
15526;SDS011;7865;50.918;4.510;2023-04-24T07:46:40;28.50;;;16.70;;
15526;SDS011;7865;50.918;4.510;2023-04-24T07:51:42;33.20;;;17.23;;
15526;SDS011;7865;50.918;4.510;2023-04-24T08:13:24;19.07;;;10.90;;
15526;SDS011;7865;50.918;4.510;2023-04-24T08:18:29;21.30;;;11.53;;
15526;SDS011;7865;50.918;4.510;2023-04-24T08:52:53;17.53;;;8.37;;
15526;SDS011;7865;50.918;4.510;2023-04-24T08:57:58;20.27;;;8.50;;
15526;SDS011;7865;50.918;4.510;2023-04-24T09:03:00;20.10;;;11.53;;
15526;SDS011;7865;50.918;4.510;2023-04-24T09:08:03;27.93;;;15.67;;
15526;SDS011;7865;50.918;4.510;2023-04-24T09:13:06;27.77;;;12.07;;
15526;SDS011;7865;50.918;4.510;2023-04-24T09:18:10;20.03;;;11.53;;
15526;SDS011;7865;50.918;4.510;2023-04-24T09:23:11;14.40;;;7.13;;
15526;SDS011;7865;50.918;4.510;2023-04-24T09:28:19;20.20;;;5.60;;
15526;SDS011;7865;50.918;4.510;2023-04-24T09:33:26;12.40;;;6.53;;
15526;SDS011;7865;50.918;4.510;2023-04-24T09:38:35;9.53;;;6.37;;
15526;SDS011;7865;50.918;4.510;2023-04-24T09:43:37;13.63;;;5.33;;
15526;SDS011;7865;50.918;4.510;2023-04-24T09:48:39;11.20;;;5.60;;
15526;SDS011;7865;50.918;4.510;2023-04-24T09:53:45;7.03;;;4.13;;
15526;SDS011;7865;50.918;4.510;2023-04-24T09:58:51;10.60;;;3.77;;
15526;SDS011;7865;50.918;4.510;2023-04-24T10:03:53;11.80;;;4.47;;
15526;SDS011;7865;50.918;4.510;2023-04-24T10:08:55;9.90;;;4.33;;
15526;SDS011;7865;50.918;4.510;2023-04-24T10:13:57;10.73;;;4.87;;
15526;SDS011;7865;50.918;4.510;2023-04-24T10:18:59;6.43;;;4.00;;
15526;SDS011;7865;50.918;4.510;2023-04-24T10:24:01;9.63;;;4.03;;
15526;SDS011;7865;50.918;4.510;2023-04-24T10:29:04;10.77;;;4.53;;
15526;SDS011;7865;50.918;4.510;2023-04-24T10:34:10;6.47;;;3.63;;
15526;SDS011;7865;50.918;4.510;2023-04-24T10:39:12;6.57;;;4.07;;
15526;SDS011;7865;50.918;4.510;2023-04-24T10:44:18;11.07;;;5.10;;
15526;SDS011;7865;50.918;4.510;2023-04-24T10:49:29;8.33;;;3.87;;
15526;SDS011;7865;50.918;4.510;2023-04-24T10:54:41;8.10;;;3.93;;
15526;SDS011;7865;50.918;4.510;2023-04-24T10:59:50;7.23;;;3.87;;
15526;SDS011;7865;50.918;4.510;2023-04-24T11:05:11;9.07;;;3.40;;
15526;SDS011;7865;50.918;4.510;2023-04-24T11:10:25;9.10;;;4.80;;
15526;SDS011;7865;50.918;4.510;2023-04-24T11:15:27;6.97;;;4.17;;
15526;SDS011;7865;50.918;4.510;2023-04-24T11:20:30;9.67;;;3.80;;
15526;SDS011;7865;50.918;4.510;2023-04-24T11:25:31;9.27;;;3.67;;
15526;SDS011;7865;50.918;4.510;2023-04-24T11:30:34;7.73;;;4.37;;
15526;SDS011;7865;50.918;4.510;2023-04-24T11:35:39;7.60;;;4.47;;
15526;SDS011;7865;50.918;4.510;2023-04-24T11:40:41;7.28;;;4.45;;
15526;SDS011;7865;50.918;4.510;2023-04-24T11:45:47;9.77;;;4.57;;
15526;SDS011;7865;50.918;4.510;2023-04-24T11:50:50;7.87;;;4.30;;
15526;SDS011;7865;50.918;4.510;2023-04-24T11:55:51;9.47;;;5.60;;
15526;SDS011;7865;50.918;4.510;2023-04-24T12:00:56;5.97;;;4.20;;
15526;SDS011;7865;50.918;4.510;2023-04-24T12:06:08;6.45;;;4.57;;
15526;SDS011;7865;50.918;4.510;2023-04-24T12:11:11;5.65;;;3.65;;
15526;SDS011;7865;50.918;4.510;2023-04-24T12:16:16;8.18;;;4.90;;
15526;SDS011;7865;50.918;4.510;2023-04-24T12:21:21;7.32;;;4.20;;
15526;SDS011;7865;50.918;4.510;2023-04-24T12:26:26;4.22;;;3.10;;
15526;SDS011;7865;50.918;4.510;2023-04-24T12:31:29;7.68;;;4.57;;
15526;SDS011;7865;50.918;4.510;2023-04-24T12:36:31;5.95;;;3.72;;
15526;SDS011;7865;50.918;4.510;2023-04-24T12:41:32;4.80;;;3.97;;
15526;SDS011;7865;50.918;4.510;2023-04-24T12:46:34;12.82;;;3.90;;
15526;SDS011;7865;50.918;4.510;2023-04-24T12:51:36;5.72;;;3.78;;
15526;SDS011;7865;50.918;4.510;2023-04-24T12:56:37;6.88;;;4.00;;
15526;SDS011;7865;50.918;4.510;2023-04-24T13:01:40;7.45;;;4.05;;
15526;SDS011;7865;50.918;4.510;2023-04-24T13:06:42;7.97;;;4.25;;
15526;SDS011;7865;50.918;4.510;2023-04-24T13:11:43;10.03;;;4.70;;
15526;SDS011;7865;50.918;4.510;2023-04-24T13:16:45;3.37;;;2.90;;
15526;SDS011;7865;50.918;4.510;2023-04-24T13:21:46;8.43;;;2.67;;
15526;SDS011;7865;50.918;4.510;2023-04-24T13:26:47;4.65;;;2.67;;
15526;SDS011;7865;50.918;4.510;2023-04-24T13:31:49;5.70;;;2.40;;
15526;SDS011;7865;50.918;4.510;2023-04-24T13:36:52;4.32;;;2.30;;
15526;SDS011;7865;50.918;4.510;2023-04-24T13:41:55;4.40;;;2.50;;
15526;SDS011;7865;50.918;4.510;2023-04-24T13:46:58;4.47;;;2.63;;
15526;SDS011;7865;50.918;4.510;2023-04-24T13:52:00;3.78;;;2.58;;
15526;SDS011;7865;50.918;4.510;2023-04-24T13:57:01;4.88;;;2.65;;
15526;SDS011;7865;50.918;4.510;2023-04-24T14:02:04;4.38;;;2.10;;
15526;SDS011;7865;50.918;4.510;2023-04-24T14:07:08;3.60;;;2.08;;
15526;SDS011;7865;50.918;4.510;2023-04-24T14:12:09;3.50;;;2.20;;
15526;SDS011;7865;50.918;4.510;2023-04-24T14:17:11;6.80;;;2.25;;
15526;SDS011;7865;50.918;4.510;2023-04-24T14:22:12;3.97;;;1.90;;
15526;SDS011;7865;50.918;4.510;2023-04-24T14:27:14;3.85;;;1.98;;
15526;SDS011;7865;50.918;4.510;2023-04-24T14:32:16;2.35;;;1.92;;
15526;SDS011;7865;50.918;4.510;2023-04-24T14:37:18;5.45;;;2.40;;
15526;SDS011;7865;50.918;4.510;2023-04-24T14:42:20;3.35;;;1.65;;
15526;SDS011;7865;50.918;4.510;2023-04-24T14:47:21;3.50;;;2.00;;
15526;SDS011;7865;50.918;4.510;2023-04-24T14:52:23;6.63;;;2.83;;
15526;SDS011;7865;50.918;4.510;2023-04-24T14:57:24;5.95;;;3.47;;
15526;SDS011;7865;50.918;4.510;2023-04-24T15:02:26;4.47;;;2.67;;
15526;SDS011;7865;50.918;4.510;2023-04-24T15:07:28;6.07;;;2.90;;
15526;SDS011;7865;50.918;4.510;2023-04-24T15:12:30;3.77;;;2.07;;
15526;SDS011;7865;50.918;4.510;2023-04-24T15:17:31;3.47;;;1.90;;
15526;SDS011;7865;50.918;4.510;2023-04-24T15:22:33;6.07;;;2.10;;
15526;SDS011;7865;50.918;4.510;2023-04-24T15:27:41;4.40;;;2.17;;
15526;SDS011;7865;50.918;4.510;2023-04-24T15:32:44;6.40;;;3.00;;
15526;SDS011;7865;50.918;4.510;2023-04-24T15:37:46;4.33;;;2.80;;
15526;SDS011;7865;50.918;4.510;2023-04-24T15:42:47;2.90;;;2.07;;
15526;SDS011;7865;50.918;4.510;2023-04-24T15:47:50;4.97;;;2.67;;
15526;SDS011;7865;50.918;4.510;2023-04-24T15:52:51;6.03;;;2.73;;
15526;SDS011;7865;50.918;4.510;2023-04-24T15:57:53;5.77;;;2.63;;
15526;SDS011;7865;50.918;4.510;2023-04-24T16:02:55;5.33;;;3.13;;
15526;SDS011;7865;50.918;4.510;2023-04-24T16:07:56;4.57;;;2.90;;
15526;SDS011;7865;50.918;4.510;2023-04-24T16:12:58;6.43;;;3.17;;
15526;SDS011;7865;50.918;4.510;2023-04-24T16:18:02;9.47;;;2.20;;
15526;SDS011;7865;50.918;4.510;2023-04-24T16:23:04;4.07;;;2.00;;
15526;SDS011;7865;50.918;4.510;2023-04-24T16:28:05;3.03;;;2.37;;
15526;SDS011;7865;50.918;4.510;2023-04-24T16:33:07;3.47;;;2.80;;
15526;SDS011;7865;50.918;4.510;2023-04-24T16:38:09;4.77;;;3.70;;
15526;SDS011;7865;50.918;4.510;2023-04-24T16:43:11;5.10;;;3.60;;
15526;SDS011;7865;50.918;4.510;2023-04-24T16:48:12;4.97;;;3.50;;
15526;SDS011;7865;50.918;4.510;2023-04-24T16:53:14;5.90;;;3.50;;
15526;SDS011;7865;50.918;4.510;2023-04-24T16:58:15;4.47;;;2.97;;
15526;SDS011;7865;50.918;4.510;2023-04-24T17:03:17;5.97;;;2.80;;
15526;SDS011;7865;50.918;4.510;2023-04-24T17:08:19;5.07;;;3.00;;
15526;SDS011;7865;50.918;4.510;2023-04-24T17:13:20;5.20;;;2.50;;
15526;SDS011;7865;50.918;4.510;2023-04-24T17:18:22;7.07;;;3.40;;
15526;SDS011;7865;50.918;4.510;2023-04-24T17:30:32;5.73;;;2.40;;
15526;SDS011;7865;50.918;4.510;2023-04-24T17:35:34;2.80;;;2.27;;
15526;SDS011;7865;50.918;4.510;2023-04-24T17:40:36;3.00;;;2.00;;
15526;SDS011;7865;50.918;4.510;2023-04-24T17:45:39;4.27;;;2.73;;
15526;SDS011;7865;50.918;4.510;2023-04-24T17:50:40;9.57;;;3.30;;
15526;SDS011;7865;50.918;4.510;2023-04-24T17:55:42;5.47;;;2.63;;
15526;SDS011;7865;50.918;4.510;2023-04-24T18:00:43;5.40;;;2.30;;
15526;SDS011;7865;50.918;4.510;2023-04-24T18:05:45;5.97;;;3.20;;
15526;SDS011;7865;50.918;4.510;2023-04-24T18:10:46;6.73;;;3.90;;
15526;SDS011;7865;50.918;4.510;2023-04-24T18:15:47;5.13;;;3.27;;
15526;SDS011;7865;50.918;4.510;2023-04-24T18:20:49;8.83;;;3.80;;
15526;SDS011;7865;50.918;4.510;2023-04-24T18:25:50;6.13;;;3.40;;
15526;SDS011;7865;50.918;4.510;2023-04-24T18:30:52;6.73;;;3.57;;
15526;SDS011;7865;50.918;4.510;2023-04-24T18:35:53;6.00;;;3.87;;
15526;SDS011;7865;50.918;4.510;2023-04-24T18:40:55;6.77;;;3.33;;
15526;SDS011;7865;50.918;4.510;2023-04-24T18:45:57;8.97;;;4.03;;
15526;SDS011;7865;50.918;4.510;2023-04-24T18:50:58;9.80;;;4.13;;
15526;SDS011;7865;50.918;4.510;2023-04-24T18:56:00;9.50;;;4.33;;
15526;SDS011;7865;50.918;4.510;2023-04-24T19:01:01;8.67;;;4.27;;
15526;SDS011;7865;50.918;4.510;2023-04-24T19:06:03;10.60;;;4.50;;
15526;SDS011;7865;50.918;4.510;2023-04-24T19:11:04;7.00;;;4.00;;
15526;SDS011;7865;50.918;4.510;2023-04-24T19:16:06;8.73;;;3.80;;
15526;SDS011;7865;50.918;4.510;2023-04-24T19:21:07;7.63;;;4.17;;
15526;SDS011;7865;50.918;4.510;2023-04-24T19:26:09;11.00;;;4.20;;
15526;SDS011;7865;50.918;4.510;2023-04-24T19:31:11;7.00;;;3.60;;
15526;SDS011;7865;50.918;4.510;2023-04-24T19:36:13;9.37;;;3.80;;
15526;SDS011;7865;50.918;4.510;2023-04-24T19:41:15;8.00;;;2.93;;
15526;SDS011;7865;50.918;4.510;2023-04-24T19:46:17;7.07;;;4.00;;
15526;SDS011;7865;50.918;4.510;2023-04-24T19:51:18;6.70;;;3.03;;
15526;SDS011;7865;50.918;4.510;2023-04-24T19:56:20;7.33;;;3.00;;
15526;SDS011;7865;50.918;4.510;2023-04-24T20:01:21;7.60;;;2.93;;
15526;SDS011;7865;50.918;4.510;2023-04-24T20:06:23;7.87;;;2.77;;
15526;SDS011;7865;50.918;4.510;2023-04-24T20:11:24;5.87;;;3.07;;
15526;SDS011;7865;50.918;4.510;2023-04-24T20:16:25;8.17;;;3.87;;
15526;SDS011;7865;50.918;4.510;2023-04-24T20:21:27;10.73;;;3.97;;
15526;SDS011;7865;50.918;4.510;2023-04-24T20:26:29;10.87;;;3.70;;
15526;SDS011;7865;50.918;4.510;2023-04-24T20:31:30;9.73;;;3.93;;
15526;SDS011;7865;50.918;4.510;2023-04-24T20:36:32;7.80;;;3.90;;
15526;SDS011;7865;50.918;4.510;2023-04-24T20:41:34;10.43;;;3.93;;
15526;SDS011;7865;50.918;4.510;2023-04-24T20:46:36;8.63;;;4.03;;
15526;SDS011;7865;50.918;4.510;2023-04-24T20:51:38;10.87;;;4.23;;
15526;SDS011;7865;50.918;4.510;2023-04-24T20:56:39;9.23;;;4.27;;
15526;SDS011;7865;50.918;4.510;2023-04-24T21:01:41;11.53;;;4.10;;
15526;SDS011;7865;50.918;4.510;2023-04-24T21:06:44;10.67;;;4.17;;
15526;SDS011;7865;50.918;4.510;2023-04-24T21:11:46;10.13;;;3.83;;
15526;SDS011;7865;50.918;4.510;2023-04-24T21:16:47;8.93;;;4.33;;
15526;SDS011;7865;50.918;4.510;2023-04-24T21:21:48;11.13;;;5.07;;
15526;SDS011;7865;50.918;4.510;2023-04-24T21:26:50;10.43;;;4.63;;
15526;SDS011;7865;50.918;4.510;2023-04-24T21:31:51;13.27;;;5.10;;
15526;SDS011;7865;50.918;4.510;2023-04-24T21:36:53;15.60;;;4.40;;
15526;SDS011;7865;50.918;4.510;2023-04-24T21:41:54;14.10;;;6.00;;
15526;SDS011;7865;50.918;4.510;2023-04-24T21:46:57;15.70;;;4.73;;
15526;SDS011;7865;50.918;4.510;2023-04-24T21:51:59;15.63;;;4.47;;
15526;SDS011;7865;50.918;4.510;2023-04-24T21:57:00;10.93;;;4.77;;
15526;SDS011;7865;50.918;4.510;2023-04-24T22:02:02;18.40;;;5.43;;
15526;SDS011;7865;50.918;4.510;2023-04-24T22:07:03;16.80;;;4.53;;
15526;SDS011;7865;50.918;4.510;2023-04-24T22:12:05;19.00;;;5.77;;
15526;SDS011;7865;50.918;4.510;2023-04-24T22:17:06;16.83;;;4.97;;
15526;SDS011;7865;50.918;4.510;2023-04-24T22:22:09;12.73;;;4.83;;
15526;SDS011;7865;50.918;4.510;2023-04-24T22:27:10;11.23;;;4.80;;
15526;SDS011;7865;50.918;4.510;2023-04-24T22:32:12;15.90;;;5.10;;
15526;SDS011;7865;50.918;4.510;2023-04-24T22:37:13;15.93;;;5.37;;
15526;SDS011;7865;50.918;4.510;2023-04-24T22:42:15;16.37;;;5.43;;
15526;SDS011;7865;50.918;4.510;2023-04-24T22:47:16;17.17;;;5.57;;
15526;SDS011;7865;50.918;4.510;2023-04-24T22:52:19;12.57;;;5.57;;
15526;SDS011;7865;50.918;4.510;2023-04-24T22:57:21;16.90;;;5.70;;
15526;SDS011;7865;50.918;4.510;2023-04-24T23:02:22;16.97;;;5.03;;
15526;SDS011;7865;50.918;4.510;2023-04-24T23:07:24;18.00;;;5.43;;
15526;SDS011;7865;50.918;4.510;2023-04-24T23:12:26;15.93;;;5.67;;
15526;SDS011;7865;50.918;4.510;2023-04-24T23:17:27;12.83;;;4.50;;
15526;SDS011;7865;50.918;4.510;2023-04-24T23:22:28;17.23;;;4.87;;
15526;SDS011;7865;50.918;4.510;2023-04-24T23:27:30;13.43;;;4.87;;
15526;SDS011;7865;50.918;4.510;2023-04-24T23:32:32;15.20;;;4.43;;
15526;SDS011;7865;50.918;4.510;2023-04-24T23:37:34;15.53;;;5.17;;
15526;SDS011;7865;50.918;4.510;2023-04-24T23:42:38;17.03;;;5.20;;
15526;SDS011;7865;50.918;4.510;2023-04-24T23:47:39;14.30;;;5.53;;
15526;SDS011;7865;50.918;4.510;2023-04-24T23:52:41;13.40;;;4.60;;
15526;SDS011;7865;50.918;4.510;2023-04-24T23:57:42;11.50;;;5.37;;
